Select Airport:
Chesapeake Regional Airport
Last updated: 19 minutes ago
Flight conditions: VFR
Visibility: 7.0 statute miles
Sky Conditions:
   Scattered clouds at 12000 feet
Wind From:
Wind speed: 0 knots (0 mph)
Temperature: -4.6°C (23.72°F)
Dew Point: -6.3°C (20.66°F)
Altimiter setting: 30.22 in-hg
WX phone: 1-757-204-4290
WX freq: 123.675 MHz
No wind, all runways available.
If at an uncontrolled airport, be sure to listen carefully to the CTAF for the runway(s) in use.
KCPK 280735Z AUTO 00000KT 7SM SCT120 M05/M06 A3022 RMK AO2 T10461063
FOR REFERENCE USE ONLY, DATA MAY NOT BE CURRENT.
ALWAYS CHECK FOR UP TO DATE INFORMATION.